sensor_id;sensor_type;location;lat;lon;timestamp;pressure;altitude;pressure_sealevel;temperature;humidity
24302;BME280;12421;49.732;20.078;2022-11-12T00:03:59;98368.86;;;1.27;84.54
24302;BME280;12421;49.732;20.078;2022-11-12T00:14:21;98371.36;;;1.34;85.47
24302;BME280;12421;49.732;20.078;2022-11-12T00:24:44;98368.96;;;1.32;85.46
24302;BME280;12421;49.732;20.078;2022-11-12T00:35:07;98380.70;;;1.24;85.48
24302;BME280;12421;49.732;20.078;2022-11-12T00:45:35;98379.02;;;1.25;85.68
24302;BME280;12421;49.732;20.078;2022-11-12T00:56:04;98389.30;;;1.16;84.90
24302;BME280;12421;49.732;20.078;2022-11-12T01:06:27;98383.76;;;1.02;84.92
24302;BME280;12421;49.732;20.078;2022-11-12T01:16:50;98383.67;;;1.00;84.72
24302;BME280;12421;49.732;20.078;2022-11-12T01:27:13;98377.01;;;1.02;84.90
24302;BME280;12421;49.732;20.078;2022-11-12T01:37:36;98372.11;;;0.97;85.02
24302;BME280;12421;49.732;20.078;2022-11-12T01:48:00;98381.39;;;0.83;85.43
24302;BME280;12421;49.732;20.078;2022-11-12T01:58:26;98381.20;;;0.75;85.78
24302;BME280;12421;49.732;20.078;2022-11-12T02:08:50;98380.38;;;0.86;86.35
24302;BME280;12421;49.732;20.078;2022-11-12T02:19:15;98380.50;;;0.92;85.85
24302;BME280;12421;49.732;20.078;2022-11-12T02:29:37;98373.48;;;0.94;85.60
24302;BME280;12421;49.732;20.078;2022-11-12T02:40:08;98373.44;;;0.83;85.32
24302;BME280;12421;49.732;20.078;2022-11-12T02:50:31;98376.67;;;0.82;85.81
24302;BME280;12421;49.732;20.078;2022-11-12T03:00:54;98382.00;;;0.84;85.57
24302;BME280;12421;49.732;20.078;2022-11-12T03:11:17;98373.52;;;0.94;85.46
24302;BME280;12421;49.732;20.078;2022-11-12T03:21:39;98374.64;;;0.96;85.01
24302;BME280;12421;49.732;20.078;2022-11-12T03:32:02;98377.86;;;0.88;85.01
24302;BME280;12421;49.732;20.078;2022-11-12T03:42:24;98376.00;;;0.79;85.09
24302;BME280;12421;49.732;20.078;2022-11-12T03:52:49;98379.29;;;0.72;85.59
24302;BME280;12421;49.732;20.078;2022-11-12T04:03:13;98384.14;;;0.82;86.01
24302;BME280;12421;49.732;20.078;2022-11-12T04:13:36;98381.49;;;0.88;85.36
24302;BME280;12421;49.732;20.078;2022-11-12T04:23:59;98374.86;;;0.83;84.87
24302;BME280;12421;49.732;20.078;2022-11-12T04:34:21;98378.08;;;0.72;84.98
24302;BME280;12421;49.732;20.078;2022-11-12T04:44:50;98371.98;;;0.74;85.14
24302;BME280;12421;49.732;20.078;2022-11-12T04:55:19;98369.30;;;0.66;84.78
24302;BME280;12421;49.732;20.078;2022-11-12T05:05:41;98362.36;;;0.58;84.84
24302;BME280;12421;49.732;20.078;2022-11-12T05:16:04;98367.58;;;0.46;85.09
24302;BME280;12421;49.732;20.078;2022-11-12T05:26:27;98370.09;;;0.44;86.10
24302;BME280;12421;49.732;20.078;2022-11-12T05:36:51;98372.57;;;0.49;86.42
24302;BME280;12421;49.732;20.078;2022-11-12T05:47:14;98379.70;;;0.60;86.50
24302;BME280;12421;49.732;20.078;2022-11-12T05:57:38;98385.62;;;0.50;86.26
24302;BME280;12421;49.732;20.078;2022-11-12T06:08:03;98387.39;;;0.45;86.20
24302;BME280;12421;49.732;20.078;2022-11-12T06:18:26;98397.05;;;0.44;86.75
24302;BME280;12421;49.732;20.078;2022-11-12T06:28:50;98409.44;;;0.53;86.32
24302;BME280;12421;49.732;20.078;2022-11-12T06:39:14;98415.70;;;0.64;86.30
24302;BME280;12421;49.732;20.078;2022-11-12T06:49:36;98420.30;;;0.83;86.44
24302;BME280;12421;49.732;20.078;2022-11-12T06:59:59;98425.61;;;1.02;87.14
24302;BME280;12421;49.732;20.078;2022-11-12T07:10:21;98423.09;;;1.18;87.21
24302;BME280;12421;49.732;20.078;2022-11-12T07:20:44;98427.14;;;1.44;87.66
24302;BME280;12421;49.732;20.078;2022-11-12T07:31:10;98423.16;;;1.83;87.87
24302;BME280;12421;49.732;20.078;2022-11-12T07:41:33;98413.57;;;2.19;87.07
24302;BME280;12421;49.732;20.078;2022-11-12T07:51:56;98409.77;;;2.46;86.90
24302;BME280;12421;49.732;20.078;2022-11-12T08:02:19;98405.60;;;2.73;87.43
24302;BME280;12421;49.732;20.078;2022-11-12T08:12:42;98408.38;;;3.11;87.80
24302;BME280;12421;49.732;20.078;2022-11-12T08:23:05;98408.98;;;3.54;88.80
24302;BME280;12421;49.732;20.078;2022-11-12T08:33:29;98406.69;;;4.02;88.97
24302;BME280;12421;49.732;20.078;2022-11-12T08:43:51;98404.52;;;4.46;88.86
24302;BME280;12421;49.732;20.078;2022-11-12T08:54:14;98408.48;;;4.93;89.31
24302;BME280;12421;49.732;20.078;2022-11-12T09:04:37;98405.67;;;5.38;88.98
24302;BME280;12421;49.732;20.078;2022-11-12T09:14:59;98408.48;;;5.82;88.82
24302;BME280;12421;49.732;20.078;2022-11-12T09:25:43;98401.88;;;6.16;88.43
24302;BME280;12421;49.732;20.078;2022-11-12T09:36:06;98393.59;;;6.48;88.41
24302;BME280;12421;49.732;20.078;2022-11-12T09:46:38;98395.52;;;6.91;88.76
24302;BME280;12421;49.732;20.078;2022-11-12T09:57:03;98390.98;;;7.45;88.64
24302;BME280;12421;49.732;20.078;2022-11-12T10:07:32;98387.10;;;8.03;88.67
24302;BME280;12421;49.732;20.078;2022-11-12T10:39:42;98358.98;;;9.71;85.24
24302;BME280;12421;49.732;20.078;2022-11-12T11:00:29;98348.82;;;10.59;82.30
24302;BME280;12421;49.732;20.078;2022-11-12T11:11:19;98337.99;;;10.96;80.92
24302;BME280;12421;49.732;20.078;2022-11-12T11:21:56;98329.38;;;11.34;79.66
24302;BME280;12421;49.732;20.078;2022-11-12T11:54:08;98313.88;;;12.01;76.45
24302;BME280;12421;49.732;20.078;2022-11-12T12:04:48;98304.29;;;12.17;75.22
24302;BME280;12421;49.732;20.078;2022-11-12T12:26:01;98302.27;;;12.40;72.88
24302;BME280;12421;49.732;20.078;2022-11-12T12:36:30;98292.75;;;12.38;72.98
24302;BME280;12421;49.732;20.078;2022-11-12T12:46:57;98288.00;;;12.39;71.93
24302;BME280;12421;49.732;20.078;2022-11-12T12:57:38;98282.34;;;12.31;71.39
24302;BME280;12421;49.732;20.078;2022-11-12T13:08:09;98282.64;;;12.23;71.66
24302;BME280;12421;49.732;20.078;2022-11-12T13:39:46;98287.76;;;11.87;72.23
24302;BME280;12421;49.732;20.078;2022-11-12T13:50:13;98287.91;;;11.61;72.67
24302;BME280;12421;49.732;20.078;2022-11-12T14:00:38;98290.76;;;11.42;72.98
24302;BME280;12421;49.732;20.078;2022-11-12T14:21:30;98288.20;;;10.73;73.46
24302;BME280;12421;49.732;20.078;2022-11-12T14:32:02;98289.70;;;10.35;74.09
24302;BME280;12421;49.732;20.078;2022-11-12T14:42:25;98284.86;;;9.88;74.50
24302;BME280;12421;49.732;20.078;2022-11-12T14:52:53;98286.77;;;9.38;74.99
24302;BME280;12421;49.732;20.078;2022-11-12T15:03:22;98284.77;;;8.92;75.58
24302;BME280;12421;49.732;20.078;2022-11-12T15:13:47;98283.80;;;8.49;76.18
24302;BME280;12421;49.732;20.078;2022-11-12T15:45:01;98300.73;;;6.99;77.61
24302;BME280;12421;49.732;20.078;2022-11-12T15:55:25;98313.02;;;6.37;77.74
24302;BME280;12421;49.732;20.078;2022-11-12T16:05:48;98333.67;;;5.68;78.32
24302;BME280;12421;49.732;20.078;2022-11-12T16:16:11;98341.05;;;5.21;78.91
24302;BME280;12421;49.732;20.078;2022-11-12T16:26:33;98340.73;;;4.91;79.91
24302;BME280;12421;49.732;20.078;2022-11-12T16:36:57;98342.33;;;4.62;80.67
24302;BME280;12421;49.732;20.078;2022-11-12T16:47:20;98348.00;;;4.31;81.04
24302;BME280;12421;49.732;20.078;2022-11-12T16:57:43;98349.92;;;4.03;81.68
24302;BME280;12421;49.732;20.078;2022-11-12T17:08:08;98346.91;;;3.70;81.35
24302;BME280;12421;49.732;20.078;2022-11-12T17:18:33;98352.20;;;3.50;82.95
24302;BME280;12421;49.732;20.078;2022-11-12T17:28:57;98351.04;;;3.29;82.74
24302;BME280;12421;49.732;20.078;2022-11-12T17:39:28;98356.70;;;3.03;82.63
24302;BME280;12421;49.732;20.078;2022-11-12T17:49:52;98365.02;;;2.85;82.96
24302;BME280;12421;49.732;20.078;2022-11-12T18:00:15;98370.14;;;2.59;83.10
24302;BME280;12421;49.732;20.078;2022-11-12T18:10:39;98376.41;;;2.36;83.53
24302;BME280;12421;49.732;20.078;2022-11-12T18:21:05;98374.63;;;2.16;83.37
24302;BME280;12421;49.732;20.078;2022-11-12T18:31:28;98377.95;;;2.01;84.01
24302;BME280;12421;49.732;20.078;2022-11-12T18:41:53;98377.16;;;1.92;85.18
24302;BME280;12421;49.732;20.078;2022-11-12T18:52:16;98378.95;;;1.86;85.41
24302;BME280;12421;49.732;20.078;2022-11-12T19:02:40;98389.06;;;1.72;84.53
24302;BME280;12421;49.732;20.078;2022-11-12T19:13:06;98393.08;;;1.51;84.14
24302;BME280;12421;49.732;20.078;2022-11-12T19:23:30;98392.90;;;1.40;84.68
24302;BME280;12421;49.732;20.078;2022-11-12T19:33:53;98390.31;;;1.26;84.26
24302;BME280;12421;49.732;20.078;2022-11-12T19:44:17;98400.20;;;1.20;84.94
24302;BME280;12421;49.732;20.078;2022-11-12T19:54:40;98413.08;;;1.07;84.80
24302;BME280;12421;49.732;20.078;2022-11-12T20:05:04;98412.02;;;0.93;84.55
24302;BME280;12421;49.732;20.078;2022-11-12T20:15:30;98413.06;;;0.83;85.03
24302;BME280;12421;49.732;20.078;2022-11-12T20:26:01;98414.73;;;0.82;85.07
24302;BME280;12421;49.732;20.078;2022-11-12T20:36:25;98415.86;;;0.74;84.64
24302;BME280;12421;49.732;20.078;2022-11-12T20:46:49;98423.92;;;0.63;84.97
24302;BME280;12421;49.732;20.078;2022-11-12T20:57:13;98417.65;;;0.52;85.25
24302;BME280;12421;49.732;20.078;2022-11-12T21:07:36;98414.40;;;0.55;86.83
24302;BME280;12421;49.732;20.078;2022-11-12T21:18:00;98407.34;;;0.50;86.26
24302;BME280;12421;49.732;20.078;2022-11-12T21:28:22;98408.92;;;0.63;86.87
24302;BME280;12421;49.732;20.078;2022-11-12T21:38:47;98408.02;;;0.90;87.90
24302;BME280;12421;49.732;20.078;2022-11-12T21:49:10;98414.20;;;1.34;88.60
24302;BME280;12421;49.732;20.078;2022-11-12T21:59:32;98408.44;;;1.83;88.65
24302;BME280;12421;49.732;20.078;2022-11-12T22:09:55;98411.21;;;2.24;87.43
24302;BME280;12421;49.732;20.078;2022-11-12T22:20:18;98405.46;;;2.47;87.31
24302;BME280;12421;49.732;20.078;2022-11-12T22:30:41;98402.63;;;2.69;86.98
24302;BME280;12421;49.732;20.078;2022-11-12T22:41:08;98407.92;;;2.79;87.07
24302;BME280;12421;49.732;20.078;2022-11-12T22:51:32;98408.64;;;2.92;87.54
24302;BME280;12421;49.732;20.078;2022-11-12T23:01:56;98398.86;;;3.23;87.78
24302;BME280;12421;49.732;20.078;2022-11-12T23:12:20;98396.97;;;3.49;87.12
24302;BME280;12421;49.732;20.078;2022-11-12T23:22:48;98391.91;;;3.62;86.64
24302;BME280;12421;49.732;20.078;2022-11-12T23:33:11;98390.52;;;3.70;86.68
24302;BME280;12421;49.732;20.078;2022-11-12T23:43:33;98379.44;;;3.84;87.26
24302;BME280;12421;49.732;20.078;2022-11-12T23:53:56;98372.79;;;4.06;87.31
